createdAt,value
2019-03-30T00:00:08.990Z,1021.20
2019-03-30T00:01:08.978Z,1021.25
2019-03-30T00:02:08.969Z,1021.21
2019-03-30T00:03:08.969Z,1021.18
2019-03-30T00:04:08.947Z,1021.18
2019-03-30T00:05:08.949Z,1021.18
2019-03-30T00:06:08.925Z,1021.16
2019-03-30T00:07:08.914Z,1021.17
2019-03-30T00:08:08.911Z,1021.15
2019-03-30T00:09:08.897Z,1021.11
2019-03-30T00:10:09.451Z,1021.07
2019-03-30T00:11:08.899Z,1021.08
2019-03-30T00:12:08.858Z,1021.10
2019-03-30T00:13:08.859Z,1021.06
2019-03-30T00:14:08.878Z,1021.10
2019-03-30T00:15:08.836Z,1021.08
2019-03-30T00:16:08.816Z,1021.11
2019-03-30T00:17:08.805Z,1021.11
2019-03-30T00:18:08.802Z,1021.06
2019-03-30T00:19:08.786Z,1021.09
2019-03-30T00:20:08.770Z,1021.14
2019-03-30T00:21:08.759Z,1021.07
2019-03-30T00:22:08.750Z,1021.08
2019-03-30T00:23:08.746Z,1021.06
2019-03-30T00:24:08.729Z,1021.06
2019-03-30T00:25:08.717Z,1021.02
2019-03-30T00:26:08.705Z,1021.02
2019-03-30T00:27:08.693Z,1021.02
2019-03-30T00:28:08.694Z,1020.99
2019-03-30T00:29:08.676Z,1020.99
2019-03-30T00:30:08.665Z,1020.91
2019-03-30T00:31:08.652Z,1020.94
2019-03-30T00:32:08.640Z,1020.97
2019-03-30T00:33:08.639Z,1020.93
2019-03-30T00:34:08.635Z,1020.92
2019-03-30T00:35:08.608Z,1020.95
2019-03-30T00:36:08.596Z,1020.93
2019-03-30T00:37:08.587Z,1020.94
2019-03-30T00:38:08.590Z,1020.93
2019-03-30T00:39:08.569Z,1020.93
2019-03-30T00:40:08.553Z,1020.93
2019-03-30T00:41:08.543Z,1020.84
2019-03-30T00:42:08.531Z,1020.88
2019-03-30T00:43:08.546Z,1020.88
2019-03-30T00:44:08.509Z,1020.88
2019-03-30T00:45:08.500Z,1020.84
2019-03-30T00:46:08.489Z,1020.85
2019-03-30T00:47:08.484Z,1020.80
2019-03-30T00:48:08.465Z,1020.86
2019-03-30T00:49:08.470Z,1020.83
2019-03-30T00:50:08.443Z,1020.81
2019-03-30T00:51:08.438Z,1020.84
2019-03-30T00:52:08.427Z,1020.82
2019-03-30T00:53:08.409Z,1020.80
2019-03-30T00:54:08.412Z,1020.77
2019-03-30T00:55:08.390Z,1020.80
2019-03-30T00:56:08.378Z,1020.78
2019-03-30T00:57:08.372Z,1020.78
2019-03-30T00:58:08.357Z,1020.76
2019-03-30T00:59:08.355Z,1020.79
2019-03-30T01:00:08.353Z,1020.76
2019-03-30T01:01:08.327Z,1020.74
2019-03-30T01:02:08.318Z,1020.72
2019-03-30T01:03:08.302Z,1020.68
2019-03-30T01:04:08.300Z,1020.73
2019-03-30T01:05:08.280Z,1020.74
2019-03-30T01:06:08.271Z,1020.75
2019-03-30T01:07:08.260Z,1020.75
2019-03-30T01:08:08.248Z,1020.68
2019-03-30T01:09:08.254Z,1020.76
2019-03-30T01:10:08.225Z,1020.72
2019-03-30T01:11:08.215Z,1020.69
2019-03-30T01:12:08.205Z,1020.69
2019-03-30T01:13:08.195Z,1020.70
2019-03-30T01:14:08.194Z,1020.65
2019-03-30T01:15:08.171Z,1020.64
2019-03-30T01:16:08.160Z,1020.68
2019-03-30T01:17:08.152Z,1020.65
2019-03-30T01:18:08.143Z,1020.63
2019-03-30T01:19:08.138Z,1020.67
2019-03-30T01:20:08.121Z,1020.61
2019-03-30T01:21:08.108Z,1020.62
2019-03-30T01:22:08.095Z,1020.64
2019-03-30T01:23:08.084Z,1020.68
2019-03-30T01:24:08.088Z,1020.66
2019-03-30T01:25:08.072Z,1020.62
2019-03-30T01:26:08.061Z,1020.72
2019-03-30T01:27:08.042Z,1020.70
2019-03-30T01:28:08.956Z,1020.71
2019-03-30T01:29:08.027Z,1020.69
2019-03-30T01:30:22.146Z,1020.75
2019-03-30T01:31:08.997Z,1020.69
2019-03-30T01:32:07.988Z,1020.70
2019-03-30T01:33:07.976Z,1020.70
2019-03-30T01:34:07.976Z,1020.71
2019-03-30T01:35:08.052Z,1020.71
2019-03-30T01:36:07.944Z,1020.68
2019-03-30T01:37:07.934Z,1020.68
2019-03-30T01:38:07.920Z,1020.65
2019-03-30T01:39:07.919Z,1020.68
2019-03-30T01:40:07.899Z,1020.67
2019-03-30T01:41:07.886Z,1020.67
2019-03-30T01:42:07.877Z,1020.66
2019-03-30T01:43:07.873Z,1020.64
2019-03-30T01:44:07.863Z,1020.64
2019-03-30T01:45:07.843Z,1020.63
2019-03-30T01:46:07.833Z,1020.63
2019-03-30T01:47:07.823Z,1020.61
2019-03-30T01:48:07.813Z,1020.57
2019-03-30T01:49:07.828Z,1020.58
2019-03-30T01:50:17.099Z,1020.57
2019-03-30T01:51:08.778Z,1020.60
2019-03-30T01:52:07.768Z,1020.60
2019-03-30T01:53:07.760Z,1020.62
2019-03-30T01:54:07.745Z,1020.62
2019-03-30T01:55:07.747Z,1020.59
2019-03-30T01:56:07.725Z,1020.60
2019-03-30T01:57:07.713Z,1020.60
2019-03-30T01:58:07.702Z,1020.62
2019-03-30T01:59:07.691Z,1020.58
2019-03-30T02:00:07.691Z,1020.59
2019-03-30T02:01:07.670Z,1020.58
2019-03-30T02:02:07.657Z,1020.61
2019-03-30T02:03:07.649Z,1020.56
2019-03-30T02:04:07.640Z,1020.53
2019-03-30T02:05:07.643Z,1020.55
2019-03-30T02:06:07.618Z,1020.53
2019-03-30T02:07:07.610Z,1020.51
2019-03-30T02:08:07.593Z,1020.54
2019-03-30T02:09:07.583Z,1020.52
2019-03-30T02:10:07.587Z,1020.51
2019-03-30T02:11:07.562Z,1020.47
2019-03-30T02:12:07.554Z,1020.50
2019-03-30T02:13:07.539Z,1020.49
2019-03-30T02:14:07.530Z,1020.47
2019-03-30T02:15:07.529Z,1020.50
2019-03-30T02:16:07.514Z,1020.48
2019-03-30T02:17:07.580Z,1020.49
2019-03-30T02:18:07.486Z,1020.45
2019-03-30T02:19:07.472Z,1020.46
2019-03-30T02:20:07.471Z,1020.43
2019-03-30T02:21:07.451Z,1020.41
2019-03-30T02:22:07.442Z,1020.37
2019-03-30T02:23:07.433Z,1020.40
2019-03-30T02:24:07.420Z,1020.42
2019-03-30T02:25:07.421Z,1020.43
2019-03-30T02:26:07.401Z,1020.36
2019-03-30T02:27:07.387Z,1020.35
2019-03-30T02:28:07.412Z,1020.37
2019-03-30T02:29:07.367Z,1020.41
2019-03-30T02:30:07.395Z,1020.37
2019-03-30T02:31:07.344Z,1020.35
2019-03-30T02:32:07.334Z,1020.33
2019-03-30T02:33:07.332Z,1020.29
2019-03-30T02:34:07.313Z,1020.26
2019-03-30T02:35:07.311Z,1020.25
2019-03-30T02:36:07.300Z,1020.27
2019-03-30T02:37:07.292Z,1020.23
2019-03-30T02:38:07.271Z,1020.32
2019-03-30T02:39:07.261Z,1020.29
2019-03-30T02:40:07.258Z,1020.26
2019-03-30T02:41:07.248Z,1020.28
2019-03-30T02:42:07.226Z,1020.28
2019-03-30T02:43:07.215Z,1020.28
2019-03-30T02:44:07.208Z,1020.27
2019-03-30T02:45:07.210Z,1020.24
2019-03-30T02:46:07.294Z,1020.32
2019-03-30T02:47:07.172Z,1020.30
2019-03-30T02:48:07.161Z,1020.24
2019-03-30T02:49:07.162Z,1020.27
2019-03-30T02:50:07.151Z,1020.24
2019-03-30T02:51:07.133Z,1020.21
2019-03-30T02:52:07.121Z,1020.23
2019-03-30T02:53:07.110Z,1020.23
2019-03-30T02:54:07.098Z,1020.20
2019-03-30T02:55:07.096Z,1020.25
2019-03-30T02:56:07.076Z,1020.21
2019-03-30T02:57:07.066Z,1020.20
2019-03-30T02:58:07.058Z,1020.20
2019-03-30T02:59:07.047Z,1020.19
2019-03-30T03:00:07.222Z,1020.16
2019-03-30T03:01:07.027Z,1020.18
2019-03-30T03:02:07.024Z,1020.18
2019-03-30T03:03:07.000Z,1020.17
2019-03-30T03:04:06.994Z,1020.20
2019-03-30T03:05:06.979Z,1020.21
2019-03-30T03:06:06.984Z,1020.18
2019-03-30T03:07:06.957Z,1020.12
2019-03-30T03:08:06.948Z,1020.11
2019-03-30T03:09:06.936Z,1020.13
2019-03-30T03:10:06.932Z,1020.12
2019-03-30T03:11:06.924Z,1020.15
2019-03-30T03:12:06.906Z,1020.15
2019-03-30T03:13:06.908Z,1020.17
2019-03-30T03:14:06.886Z,1020.15
2019-03-30T03:15:06.876Z,1020.11
2019-03-30T03:16:06.874Z,1020.09
2019-03-30T03:17:06.851Z,1020.14
2019-03-30T03:18:06.844Z,1020.09
2019-03-30T03:19:06.832Z,1020.08
2019-03-30T03:20:06.832Z,1020.04
2019-03-30T03:21:08.567Z,1020.04
2019-03-30T03:22:06.801Z,1019.96
2019-03-30T03:23:06.802Z,1019.99
2019-03-30T03:24:06.779Z,1019.99
2019-03-30T03:25:06.771Z,1019.92
2019-03-30T03:26:06.763Z,1019.94
2019-03-30T03:27:06.745Z,1019.87
2019-03-30T03:28:06.733Z,1019.92
2019-03-30T03:29:06.721Z,1019.90
2019-03-30T03:30:06.715Z,1019.88
2019-03-30T03:31:06.745Z,1019.90
2019-03-30T03:32:06.692Z,1019.85
2019-03-30T03:33:06.687Z,1019.88
2019-03-30T03:34:06.671Z,1019.89
2019-03-30T03:35:06.667Z,1019.87
2019-03-30T03:36:06.661Z,1019.94
2019-03-30T03:37:06.639Z,1019.85
2019-03-30T03:38:06.626Z,1019.84
2019-03-30T03:39:06.620Z,1019.85
2019-03-30T03:40:06.609Z,1019.81
2019-03-30T03:41:06.604Z,1019.81
2019-03-30T03:42:06.586Z,1019.80
2019-03-30T03:43:06.583Z,1019.85
2019-03-30T03:44:06.565Z,1019.87
2019-03-30T03:45:06.557Z,1019.80
2019-03-30T03:46:06.552Z,1019.81
2019-03-30T03:47:06.530Z,1019.81
2019-03-30T03:48:06.523Z,1019.79
2019-03-30T03:49:06.519Z,1019.84
2019-03-30T03:50:06.501Z,1019.79
2019-03-30T03:51:24.503Z,1019.80
2019-03-30T03:52:07.481Z,1019.81
2019-03-30T03:53:06.477Z,1019.78
2019-03-30T03:54:06.469Z,1019.75
2019-03-30T03:55:06.449Z,1019.75
2019-03-30T03:56:06.658Z,1019.75
2019-03-30T03:57:06.432Z,1019.80
2019-03-30T03:58:06.417Z,1019.73
2019-03-30T03:59:06.409Z,1019.76
2019-03-30T04:00:06.396Z,1019.76
2019-03-30T04:01:06.395Z,1019.74
2019-03-30T04:02:06.372Z,1019.75
2019-03-30T04:03:06.363Z,1019.73
2019-03-30T04:04:06.355Z,1019.74
2019-03-30T04:05:06.343Z,1019.76
2019-03-30T04:06:06.348Z,1019.75
2019-03-30T04:07:06.323Z,1019.71
2019-03-30T04:08:06.310Z,1019.72
2019-03-30T04:09:06.297Z,1019.71
2019-03-30T04:10:06.295Z,1019.70
2019-03-30T04:11:06.287Z,1019.69
2019-03-30T04:12:06.267Z,1019.71
2019-03-30T04:13:07.165Z,1019.65
2019-03-30T04:14:06.248Z,1019.68
2019-03-30T04:15:06.233Z,1019.72
2019-03-30T04:16:06.225Z,1019.65
2019-03-30T04:17:06.220Z,1019.72
2019-03-30T04:18:06.202Z,1019.76
2019-03-30T04:19:06.206Z,1019.71
2019-03-30T04:20:06.185Z,1019.63
2019-03-30T04:21:06.170Z,1019.71
2019-03-30T04:22:06.177Z,1019.72
2019-03-30T04:23:06.151Z,1019.70
2019-03-30T04:24:06.138Z,1019.68
2019-03-30T04:25:06.128Z,1019.67
2019-03-30T04:26:06.124Z,1019.68
2019-03-30T04:27:06.116Z,1019.65
2019-03-30T04:28:06.110Z,1019.58
2019-03-30T04:29:06.089Z,1019.57
2019-03-30T04:30:06.073Z,1019.61
2019-03-30T04:31:06.063Z,1019.57
2019-03-30T04:32:06.064Z,1019.56
2019-03-30T04:33:06.045Z,1019.54
2019-03-30T04:34:06.033Z,1019.60
2019-03-30T04:35:06.021Z,1019.59
2019-03-30T04:36:06.015Z,1019.58
2019-03-30T04:37:06.082Z,1019.58
2019-03-30T04:38:05.989Z,1019.57
2019-03-30T04:39:05.979Z,1019.59
2019-03-30T04:40:05.974Z,1019.54
2019-03-30T04:41:05.958Z,1019.54
2019-03-30T04:42:05.956Z,1019.52
2019-03-30T04:43:05.938Z,1019.57
2019-03-30T04:44:05.925Z,1019.55
2019-03-30T04:45:05.915Z,1019.53
2019-03-30T04:46:05.905Z,1019.48
2019-03-30T04:47:05.902Z,1019.54
2019-03-30T04:48:05.883Z,1019.49
2019-03-30T04:49:05.882Z,1019.53
2019-03-30T04:50:05.923Z,1019.55
2019-03-30T04:51:05.851Z,1019.52
2019-03-30T04:52:05.851Z,1019.54
2019-03-30T04:53:05.829Z,1019.53
2019-03-30T04:54:05.820Z,1019.54
2019-03-30T04:55:05.809Z,1019.49
2019-03-30T04:56:05.797Z,1019.54
2019-03-30T04:57:05.797Z,1019.50
2019-03-30T04:58:09.056Z,1019.48
2019-03-30T04:59:05.768Z,1019.52
2019-03-30T05:00:05.756Z,1019.49
2019-03-30T05:01:05.748Z,1019.50
2019-03-30T05:02:05.745Z,1019.46
2019-03-30T05:03:05.731Z,1019.45
2019-03-30T05:04:05.713Z,1019.48
2019-03-30T05:05:05.702Z,1019.44
2019-03-30T05:06:05.693Z,1019.42
2019-03-30T05:07:05.690Z,1019.40
2019-03-30T05:08:05.670Z,1019.40
2019-03-30T05:09:05.661Z,1019.39
2019-03-30T05:10:05.652Z,1019.38
2019-03-30T05:11:05.643Z,1019.41
2019-03-30T05:12:05.650Z,1019.44
2019-03-30T05:13:05.627Z,1019.45
2019-03-30T05:14:05.608Z,1019.43
2019-03-30T05:15:05.597Z,1019.43
2019-03-30T05:16:05.592Z,1019.42
2019-03-30T05:17:05.589Z,1019.46
2019-03-30T05:18:05.567Z,1019.40
2019-03-30T05:19:05.552Z,1019.44
2019-03-30T05:20:05.542Z,1019.42
2019-03-30T05:21:05.534Z,1019.47
2019-03-30T05:22:11.965Z,1019.41
2019-03-30T05:23:06.512Z,1019.38
2019-03-30T05:24:05.500Z,1019.31
2019-03-30T05:25:05.489Z,1019.33
2019-03-30T05:26:05.479Z,1019.30
2019-03-30T05:27:05.476Z,1019.32
2019-03-30T05:28:05.459Z,1019.31
2019-03-30T05:29:05.445Z,1019.33
2019-03-30T05:30:05.443Z,1019.34
2019-03-30T05:31:05.433Z,1019.37
2019-03-30T05:32:05.446Z,1019.35
2019-03-30T05:33:06.435Z,1019.30
2019-03-30T05:34:05.394Z,1019.38
2019-03-30T05:35:05.384Z,1019.35
2019-03-30T05:36:05.372Z,1019.32
2019-03-30T05:37:05.360Z,1019.34
2019-03-30T05:38:05.359Z,1019.39
2019-03-30T05:39:05.347Z,1019.35
2019-03-30T05:40:05.327Z,1019.33
2019-03-30T05:41:05.316Z,1019.41
2019-03-30T05:42:05.309Z,1019.34
2019-03-30T05:43:05.303Z,1019.34
2019-03-30T05:44:05.283Z,1019.37
2019-03-30T05:45:05.272Z,1019.33
2019-03-30T05:46:05.270Z,1019.34
2019-03-30T05:47:05.250Z,1019.34
2019-03-30T05:48:05.252Z,1019.32
2019-03-30T05:49:05.240Z,1019.34
2019-03-30T05:50:05.218Z,1019.38
2019-03-30T05:51:05.211Z,1019.35
2019-03-30T05:52:05.196Z,1019.39
2019-03-30T05:53:05.197Z,1019.39
2019-03-30T05:54:05.175Z,1019.35
2019-03-30T05:55:05.164Z,1019.37
2019-03-30T05:56:05.153Z,1019.35
2019-03-30T05:57:05.148Z,1019.39
2019-03-30T05:58:05.141Z,1019.39
2019-03-30T05:59:05.123Z,1019.33
2019-03-30T06:00:05.112Z,1019.32
2019-03-30T06:01:05.099Z,1019.32
2019-03-30T06:02:05.090Z,1019.23
2019-03-30T06:03:05.090Z,1019.24
2019-03-30T06:04:05.067Z,1019.26
2019-03-30T06:05:05.060Z,1019.29
2019-03-30T06:06:05.044Z,1019.33
2019-03-30T06:07:05.033Z,1019.26
2019-03-30T06:08:05.032Z,1019.28
2019-03-30T06:09:05.012Z,1019.28
2019-03-30T06:10:05.002Z,1019.30
2019-03-30T06:11:04.990Z,1019.28
2019-03-30T06:12:04.982Z,1019.27
2019-03-30T06:13:04.978Z,1019.35
2019-03-30T06:14:04.958Z,1019.32
2019-03-30T06:15:04.951Z,1019.32
2019-03-30T06:16:04.936Z,1019.35
2019-03-30T06:17:04.925Z,1019.39
2019-03-30T06:18:04.924Z,1019.33
2019-03-30T06:19:04.905Z,1019.37
2019-03-30T06:20:04.893Z,1019.37
2019-03-30T06:21:04.881Z,1019.33
2019-03-30T06:22:04.873Z,1019.28
2019-03-30T06:23:04.875Z,1019.34
2019-03-30T06:24:04.850Z,1019.33
2019-03-30T06:25:04.852Z,1019.37
2019-03-30T06:26:04.827Z,1019.31
2019-03-30T06:27:04.815Z,1019.32
2019-03-30T06:28:04.819Z,1019.33
2019-03-30T06:29:04.794Z,1019.39
2019-03-30T06:30:04.782Z,1019.33
2019-03-30T06:31:04.772Z,1019.31
2019-03-30T06:32:04.760Z,1019.34
2019-03-30T06:33:04.760Z,1019.35
2019-03-30T06:34:04.748Z,1019.32
2019-03-30T06:35:04.728Z,1019.35
2019-03-30T06:36:04.718Z,1019.34
2019-03-30T06:37:04.706Z,1019.36
2019-03-30T06:38:04.715Z,1019.33
2019-03-30T06:39:04.692Z,1019.35
2019-03-30T06:40:04.675Z,1019.31
2019-03-30T06:41:04.669Z,1019.29
2019-03-30T06:42:04.653Z,1019.26
2019-03-30T06:43:07.521Z,1019.19
2019-03-30T06:44:04.647Z,1019.23
2019-03-30T06:45:04.629Z,1019.20
2019-03-30T06:46:04.651Z,1019.20
2019-03-30T06:47:04.622Z,1019.21
2019-03-30T06:48:04.592Z,1019.19
2019-03-30T06:49:04.590Z,1019.16
2019-03-30T06:50:04.568Z,1019.16
2019-03-30T06:51:04.560Z,1019.13
2019-03-30T06:52:04.545Z,1019.14
2019-03-30T06:53:04.560Z,1019.18
2019-03-30T06:54:04.535Z,1019.22
2019-03-30T06:55:05.508Z,1019.14
2019-03-30T06:56:04.508Z,1019.19
2019-03-30T06:57:04.496Z,1019.15
2019-03-30T06:58:04.485Z,1019.13
2019-03-30T06:59:04.482Z,1019.13
2019-03-30T07:00:04.462Z,1019.09
2019-03-30T07:01:04.450Z,1019.14
2019-03-30T07:02:04.444Z,1019.18
2019-03-30T07:03:04.434Z,1019.15
2019-03-30T07:04:04.430Z,1019.18
2019-03-30T07:05:04.414Z,1019.17
2019-03-30T07:06:04.399Z,1019.14
2019-03-30T07:07:04.390Z,1019.10
2019-03-30T07:08:04.376Z,1019.17
2019-03-30T07:09:04.374Z,1019.16
2019-03-30T07:10:04.356Z,1019.10
2019-03-30T07:11:04.344Z,1019.13
2019-03-30T07:12:04.345Z,1019.09
2019-03-30T07:13:04.324Z,1019.07
2019-03-30T07:14:04.326Z,1019.06
2019-03-30T07:15:04.305Z,1019.07
2019-03-30T07:16:04.337Z,1019.00
2019-03-30T07:17:04.285Z,1018.97
2019-03-30T07:18:04.271Z,1018.95
2019-03-30T07:19:04.305Z,1019.01
2019-03-30T07:20:04.257Z,1018.99
2019-03-30T07:21:04.246Z,1018.98
2019-03-30T07:22:04.233Z,1019.00
2019-03-30T07:23:11.742Z,1019.06
2019-03-30T07:24:05.239Z,1019.10
2019-03-30T07:25:04.201Z,1019.11
2019-03-30T07:26:04.186Z,1019.10
2019-03-30T07:27:04.177Z,1019.10
2019-03-30T07:28:04.191Z,1019.07
2019-03-30T07:29:04.168Z,1019.07
2019-03-30T07:30:04.170Z,1019.09
2019-03-30T07:31:04.164Z,1019.06
2019-03-30T07:32:04.142Z,1019.02
2019-03-30T07:33:04.116Z,1019.07
2019-03-30T07:34:04.103Z,1018.97
2019-03-30T07:35:04.106Z,1019.04
2019-03-30T07:36:04.081Z,1018.99
2019-03-30T07:37:04.068Z,1018.97
2019-03-30T07:38:04.063Z,1018.99
2019-03-30T07:39:04.052Z,1018.98
2019-03-30T07:40:04.045Z,1019.04
2019-03-30T07:41:04.027Z,1019.01
2019-03-30T07:42:04.016Z,1018.99
2019-03-30T07:43:04.009Z,1019.02
2019-03-30T07:44:03.998Z,1019.04
2019-03-30T07:45:03.999Z,1019.02
2019-03-30T07:46:03.986Z,1019.03
2019-03-30T07:47:03.968Z,1019.05
2019-03-30T07:48:03.952Z,1018.99
2019-03-30T07:49:03.962Z,1019.09
2019-03-30T07:50:03.951Z,1019.05
2019-03-30T07:51:03.923Z,1019.09
2019-03-30T07:52:03.909Z,1019.03
2019-03-30T07:53:04.251Z,1019.05
2019-03-30T07:54:11.779Z,1019.07
2019-03-30T07:55:03.886Z,1019.08
2019-03-30T07:56:08.483Z,1019.01
2019-03-30T07:57:16.859Z,1019.08
2019-03-30T07:58:04.924Z,1019.05
2019-03-30T07:59:03.848Z,1019.07
2019-03-30T08:00:03.828Z,1019.04
2019-03-30T08:01:03.811Z,1018.99
2019-03-30T08:02:03.800Z,1019.08
2019-03-30T08:03:03.789Z,1019.03
2019-03-30T08:04:03.780Z,1019.07
2019-03-30T08:05:03.778Z,1019.06
2019-03-30T08:06:11.077Z,1019.03
2019-03-30T08:07:03.750Z,1019.08
2019-03-30T08:08:03.824Z,1019.08
2019-03-30T08:09:03.778Z,1019.08
2019-03-30T08:10:03.735Z,1019.08
2019-03-30T08:11:03.700Z,1019.06
2019-03-30T08:12:03.695Z,1019.08
2019-03-30T08:13:03.687Z,1019.05
2019-03-30T08:14:03.678Z,1019.03
2019-03-30T08:15:03.671Z,1019.04
2019-03-30T08:16:10.672Z,1019.04
2019-03-30T08:17:03.679Z,1019.05
2019-03-30T08:18:03.626Z,1019.01
2019-03-30T08:19:03.649Z,1018.97
2019-03-30T08:20:03.616Z,1018.97
2019-03-30T08:21:03.651Z,1019.00
2019-03-30T08:22:03.584Z,1018.97
2019-03-30T08:23:03.573Z,1018.97
2019-03-30T08:24:03.605Z,1018.91
2019-03-30T08:25:03.567Z,1018.92
2019-03-30T08:26:03.539Z,1018.89
2019-03-30T08:27:03.528Z,1018.87
2019-03-30T08:28:03.518Z,1018.86
2019-03-30T08:29:03.511Z,1018.92
2019-03-30T08:30:03.496Z,1018.94
2019-03-30T08:31:03.508Z,1018.93
2019-03-30T08:32:03.482Z,1018.93
2019-03-30T08:33:03.476Z,1018.96
2019-03-30T08:34:03.454Z,1018.90
2019-03-30T08:35:03.441Z,1018.89
2019-03-30T08:36:03.444Z,1018.91
2019-03-30T08:37:03.419Z,1018.91
2019-03-30T08:38:03.409Z,1018.87
2019-03-30T08:39:03.396Z,1018.85
2019-03-30T08:40:03.388Z,1018.89
2019-03-30T08:41:03.383Z,1018.84
2019-03-30T08:42:03.366Z,1018.82
2019-03-30T08:43:03.367Z,1018.81
2019-03-30T08:44:03.344Z,1018.75
2019-03-30T08:45:03.334Z,1018.73
2019-03-30T08:46:03.424Z,1018.71
2019-03-30T08:47:03.311Z,1018.74
2019-03-30T08:48:03.305Z,1018.74
2019-03-30T08:49:03.294Z,1018.71
2019-03-30T08:50:03.275Z,1018.67
2019-03-30T08:51:03.276Z,1018.67
2019-03-30T08:52:03.263Z,1018.63
2019-03-30T08:53:03.250Z,1018.59
2019-03-30T08:54:03.245Z,1018.61
2019-03-30T08:55:03.229Z,1018.62
2019-03-30T08:56:03.222Z,1018.58
2019-03-30T08:57:03.201Z,1018.58
2019-03-30T08:58:03.198Z,1018.60
2019-03-30T08:59:03.184Z,1018.56
2019-03-30T09:00:03.167Z,1018.58
2019-03-30T09:01:03.167Z,1018.56
2019-03-30T09:02:03.149Z,1018.54
2019-03-30T09:03:03.139Z,1018.54
2019-03-30T09:04:03.138Z,1018.53
2019-03-30T09:05:03.114Z,1018.56
2019-03-30T09:06:03.116Z,1018.50
2019-03-30T09:07:03.091Z,1018.47
2019-03-30T09:08:03.180Z,1018.45
2019-03-30T09:09:03.069Z,1018.50
2019-03-30T09:10:03.057Z,1018.47
2019-03-30T09:11:03.060Z,1018.48
2019-03-30T09:12:03.045Z,1018.45
2019-03-30T09:13:03.026Z,1018.46
2019-03-30T09:14:03.014Z,1018.44
2019-03-30T09:15:03.006Z,1018.47
2019-03-30T09:16:03.004Z,1018.46
2019-03-30T09:17:02.988Z,1018.46
2019-03-30T09:18:03.062Z,1018.40
2019-03-30T09:19:02.962Z,1018.37
2019-03-30T09:20:02.955Z,1018.36
2019-03-30T09:21:02.965Z,1018.38
2019-03-30T09:22:02.933Z,1018.38
2019-03-30T09:23:02.918Z,1018.32
2019-03-30T09:24:09.693Z,1018.38
2019-03-30T09:25:03.894Z,1018.31
2019-03-30T09:26:02.893Z,1018.36
2019-03-30T09:27:02.877Z,1018.32
2019-03-30T09:28:02.872Z,1018.33
2019-03-30T09:29:02.850Z,1018.29
2019-03-30T09:30:02.840Z,1018.21
2019-03-30T09:31:02.878Z,1018.27
2019-03-30T09:32:13.651Z,1018.24
2019-03-30T09:33:03.806Z,1018.23
2019-03-30T09:34:02.796Z,1018.20
2019-03-30T09:35:02.786Z,1018.26
2019-03-30T09:36:02.776Z,1018.24
2019-03-30T09:37:02.773Z,1018.26
2019-03-30T09:38:02.769Z,1018.20
2019-03-30T09:39:02.745Z,1018.16
2019-03-30T09:40:02.731Z,1018.12
2019-03-30T09:41:02.720Z,1018.16
2019-03-30T09:42:02.717Z,1018.14
2019-03-30T09:43:02.705Z,1018.18
2019-03-30T09:44:02.688Z,1018.13
2019-03-30T09:45:02.684Z,1018.17
2019-03-30T09:46:02.665Z,1018.09
2019-03-30T09:47:02.666Z,1018.09
2019-03-30T09:48:02.644Z,1018.03
2019-03-30T09:49:02.642Z,1018.05
2019-03-30T09:50:03.101Z,1018.05
2019-03-30T09:51:02.616Z,1018.04
2019-03-30T09:52:02.612Z,1018.02
2019-03-30T09:53:02.596Z,1017.99
2019-03-30T09:54:02.581Z,1017.97
2019-03-30T09:55:02.573Z,1017.96
2019-03-30T09:56:02.564Z,1018.01
2019-03-30T09:57:02.561Z,1017.98
2019-03-30T09:58:02.546Z,1017.96
2019-03-30T09:59:02.523Z,1017.98
2019-03-30T10:00:02.519Z,1017.97
2019-03-30T10:01:02.508Z,1017.96
2019-03-30T10:02:02.502Z,1017.94
2019-03-30T10:03:05.825Z,1017.95
2019-03-30T10:04:02.497Z,1017.91
2019-03-30T10:05:02.458Z,1017.90
2019-03-30T10:06:02.453Z,1017.85
2019-03-30T10:07:02.452Z,1017.86
2019-03-30T10:08:02.432Z,1017.83
2019-03-30T10:09:02.415Z,1017.80
2019-03-30T10:10:02.404Z,1017.81
2019-03-30T10:11:02.393Z,1017.76
2019-03-30T10:12:02.389Z,1017.79
2019-03-30T10:13:02.372Z,1017.81
2019-03-30T10:14:02.371Z,1017.80
2019-03-30T10:15:02.351Z,1017.83
2019-03-30T10:16:02.338Z,1017.83
2019-03-30T10:17:02.340Z,1017.77
2019-03-30T10:18:02.321Z,1017.78
2019-03-30T10:19:02.306Z,1017.79
2019-03-30T10:20:04.818Z,1017.82
2019-03-30T10:21:02.285Z,1017.75
2019-03-30T10:22:02.352Z,1017.73
2019-03-30T10:23:02.264Z,1017.75
2019-03-30T10:24:02.254Z,1017.68
2019-03-30T10:25:02.242Z,1017.73
2019-03-30T10:26:02.231Z,1017.71
2019-03-30T10:27:02.255Z,1017.71
2019-03-30T10:28:02.283Z,1017.70
2019-03-30T10:29:02.201Z,1017.68
2019-03-30T10:30:02.185Z,1017.63
2019-03-30T10:31:02.178Z,1017.61
2019-03-30T10:32:02.191Z,1017.63
2019-03-30T10:33:02.168Z,1017.64
2019-03-30T10:34:02.142Z,1017.57
2019-03-30T10:35:02.134Z,1017.58
2019-03-30T10:36:02.122Z,1017.55
2019-03-30T10:37:02.121Z,1017.55
2019-03-30T10:38:02.120Z,1017.55
2019-03-30T10:39:02.088Z,1017.50
2019-03-30T10:40:02.078Z,1017.54
2019-03-30T10:41:02.068Z,1017.49
2019-03-30T10:42:02.083Z,1017.50
2019-03-30T10:43:02.056Z,1017.50
2019-03-30T10:44:02.036Z,1017.41
2019-03-30T10:45:02.042Z,1017.38
2019-03-30T10:46:02.020Z,1017.38
2019-03-30T10:47:02.105Z,1017.38
2019-03-30T10:48:02.004Z,1017.35
2019-03-30T10:49:02.008Z,1017.36
2019-03-30T10:50:01.986Z,1017.38
2019-03-30T10:51:02.029Z,1017.41
2019-03-30T10:52:01.968Z,1017.39
2019-03-30T10:53:01.943Z,1017.40
2019-03-30T10:54:01.940Z,1017.24
2019-03-30T10:55:01.924Z,1017.24
2019-03-30T10:56:01.909Z,1017.26
2019-03-30T10:57:02.087Z,1017.24
2019-03-30T10:58:01.882Z,1017.26
2019-03-30T10:59:01.873Z,1017.23
2019-03-30T11:00:01.865Z,1017.22
2019-03-30T11:01:01.856Z,1017.16
2019-03-30T11:02:01.839Z,1017.16
2019-03-30T11:03:01.840Z,1017.19
2019-03-30T11:04:01.819Z,1017.18
2019-03-30T11:05:01.807Z,1017.15
2019-03-30T11:06:01.800Z,1017.14
2019-03-30T11:07:01.787Z,1017.13
2019-03-30T11:08:01.783Z,1017.12
2019-03-30T11:09:01.768Z,1017.11
2019-03-30T11:10:01.755Z,1017.09
2019-03-30T11:11:01.746Z,1017.08
2019-03-30T11:12:01.734Z,1017.08
2019-03-30T11:13:01.729Z,1017.10
2019-03-30T11:14:01.709Z,1017.12
2019-03-30T11:15:01.702Z,1017.08
2019-03-30T11:16:01.702Z,1017.08
2019-03-30T11:17:01.683Z,1017.12
2019-03-30T11:18:01.680Z,1017.00
2019-03-30T11:19:01.658Z,1017.02
2019-03-30T11:20:01.650Z,1017.03
2019-03-30T11:21:01.652Z,1017.07
2019-03-30T11:22:03.250Z,1017.06
2019-03-30T11:23:01.626Z,1016.97
2019-03-30T11:24:01.604Z,1016.95
2019-03-30T11:25:08.046Z,1016.96
2019-03-30T11:26:02.582Z,1016.94
2019-03-30T11:27:01.571Z,1016.92
2019-03-30T11:28:01.572Z,1016.87
2019-03-30T11:29:01.587Z,1016.91
2019-03-30T11:30:01.543Z,1016.89
2019-03-30T11:31:01.534Z,1016.86
2019-03-30T11:32:01.547Z,1016.79
2019-03-30T11:33:01.519Z,1016.81
2019-03-30T11:34:01.499Z,1016.77
2019-03-30T11:35:01.505Z,1016.72
2019-03-30T11:36:01.475Z,1016.76
2019-03-30T11:37:01.466Z,1016.69
2019-03-30T11:38:01.461Z,1016.70
2019-03-30T11:39:01.442Z,1016.71
2019-03-30T11:40:01.434Z,1016.70
2019-03-30T11:41:01.431Z,1016.71
2019-03-30T11:42:01.415Z,1016.63
2019-03-30T11:43:01.409Z,1016.60
2019-03-30T11:44:01.428Z,1016.60
2019-03-30T11:45:01.381Z,1016.60
2019-03-30T11:46:01.378Z,1016.55
2019-03-30T11:47:01.356Z,1016.54
2019-03-30T11:48:01.377Z,1016.57
2019-03-30T11:49:01.335Z,1016.51
2019-03-30T11:50:01.325Z,1016.51
2019-03-30T11:51:01.313Z,1016.53
2019-03-30T11:52:01.302Z,1016.53
2019-03-30T11:53:01.292Z,1016.59
2019-03-30T11:54:01.292Z,1016.53
2019-03-30T11:55:01.280Z,1016.49
2019-03-30T11:56:01.261Z,1016.44
2019-03-30T11:57:01.249Z,1016.42
2019-03-30T11:58:01.248Z,1016.40
2019-03-30T11:59:01.241Z,1016.30
2019-03-30T12:00:01.216Z,1016.28
2019-03-30T12:01:01.211Z,1016.26
2019-03-30T12:02:01.196Z,1016.20
2019-03-30T12:03:01.184Z,1016.21
2019-03-30T12:04:01.181Z,1016.22
2019-03-30T12:05:01.168Z,1016.21